WARRWADD

Guest
Details From WARR - Surabaya Juanda
To WADD - Denpasar Ngurah Rai Intl
Flight Number -
Tags generated
Created
Modified
Stats Distance 164 nm / 303 km
Max Altitude 17,700 ft / 5,395 m
Waypoints 4
Social Downloads 0
Likes 0
Share VATSIM

Download

Looking for another format? Having issues loading an existing format? Contact us
Advertisement - Login to hide

Notes

Basic altitude profile: - Ascent Rate: 2000ft/min - Ascent Speed: 180kts - Cruise Altitude: 23000ft - Cruise Speed: 230kts - Descent Rate: 1500ft/min - Descent Speed: 200kts Options: - Use NATs: yes - Use PACOTS: yes - Use low airways: yes - Use high airways: yes

Route

WARR RABOL W33 BLI WADD

ID Type Via Altitude (ft/m) Position (lat/lon) Dist (leg/tot) Name
O WARR APT - 0 / 0 -7.37983 / 112.78686 - / 0 nm Surabaya Juanda
RABOL FIX - 17,700 / 5,395 -8.02142 / 113.89569 76 / 76 nm
BLI VOR W33 (AWY-LO) 4,000 / 1,219 -8.75058 / 115.16331 87 / 163 nm BALI VOR-DME
O WADD APT - 0 / 0 -8.74817 / 115.16717 0 / 163 nm Denpasar Ngurah Rai Intl

Altitude Profile

Advertisement - Login to hide

Weather


0- 5 10 15 20 25 30 35+ Temperature / °C

Clouds and Precipitation
Forecast for 2018-10-20 00:00 UTC. Updated 3 hours ago

Ground ~20,000 ft ~40,000 ft Winds

WARR

Details ICAO WARR (SUB)
Name Juanda International Airport
Region Indonesia
Timezone Asia/Jakarta (UTC+7.0)
Stats Elevation 11 ft / 3 m (AMSL)
Location -7.379830° 112.787000°
Runways 1
Magnetic Variation 0.904° E

METAR

WARR 200000Z 28003KT 220V340 5000 HZ FEW020 28/21 Q1013 NOSIG

Decode

TAF

Not found

Departure Runways

ID Width Length Bearing (true/mag) Surface Threshold Overrun Markings Lighting
10 148 ft / 45 m 9,852 ft / 3,003 m 99.25° / 98.34° ASPHALT 0 ft / 0 m 312 ft / 95 m PREC-APP CENTERLINE EDGE THRESHOLD MALSF
28 148 ft / 45 m 9,852 ft / 3,003 m 279.24° / 278.34° ASPHALT 0 ft / 0 m 292 ft / 89 m PREC-APP CENTERLINE EDGE THRESHOLD MALSF

WADD

Details ICAO WADD (DPS)
Name Denpasar Ngurah Rai International
Region Indonesia
Timezone Asia/Makassar (UTC+8.0)
Stats Elevation 14 ft / 4 m (AMSL)
Location -8.748380° 115.167000°
Runways 1
Magnetic Variation 0.996° E

METAR

WADD 200000Z 27007KT 9999 FEW016 BKN033 27/24 Q1015 NOSIG

Decode

TAF

Not found

Destination Runways

ID Width Length Bearing (true/mag) Surface Threshold Overrun Markings Lighting
09 148 ft / 45 m 9,852 ft / 3,003 m 87.67° / 86.68° ASPHALT 0 ft / 0 m 197 ft / 60 m PREC-APP EDGE THRESHOLD REIL-OMNI
27 148 ft / 45 m 9,852 ft / 3,003 m 267.67° / 266.67° ASPHALT 0 ft / 0 m 197 ft / 60 m PREC-APP EDGE THRESHOLD MALS REIL-OMNI

Approach Navaids

Runway Type Ident Frequency Range Bearing (true/mag) Slope Elevation
27 GS IDPS 110.30 MHz 10 nm / 19 km 268.41° / 267.41 ° 3.00° 12 ft / 4 m (AMSL)
27 MM MM - - 267.70° / 266.71 ° - 14 ft / 4 m (AMSL)
27 DME IDPS 110.30 MHz 18 nm / 33 km - - 14 ft / 4 m (AMSL)
27 LOC-ILS IDPS 110.30 MHz 18 nm / 33 km 267.70° / 266.71 ° - 10 ft / 3 m (AMSL)

Popular Alternatives